Time;durP1;ratioP1;P1;durP2;ratioP2;P2;SDS_P1;SDS_P2;PMS_P1;PMS_P2;Temp;Humidity;BMP_temperature;BMP_pressure;BME280_temperature;BME280_humidity;BME280_pressure;Samples;Min_cycle;Max_cycle;Signal;HPM_P1;HPM_P2
2023/01/16 00:00:19;;;;;;;75.73;49.97;;;9.50;1.00;;;;;;5014910;28;20450;-53
2023/01/16 00:02:45;;;;;;;73.73;49.20;;;9.50;1.00;;;;;;5014666;28;20038;-52
2023/01/16 00:05:10;;;;;;;73.13;49.17;;;9.50;1.00;;;;;;5014549;28;20035;-51
2023/01/16 00:07:36;;;;;;;74.60;48.53;;;9.50;1.00;;;;;;5015293;28;20022;-53
2023/01/16 00:10:03;;;;;;;76.53;51.60;;;9.40;1.00;;;;;;4996672;28;20113;-53
2023/01/16 00:12:29;;;;;;;73.07;49.08;;;9.50;1.00;;;;;;5014547;28;20038;-53
2023/01/16 00:14:55;;;;;;;76.90;50.33;;;9.40;1.00;;;;;;5014857;28;20100;-55
2023/01/16 00:17:20;;;;;;;73.80;48.63;;;9.40;1.00;;;;;;5014476;28;20423;-52
2023/01/16 00:19:46;;;;;;;72.00;49.30;;;9.40;1.00;;;;;;5014335;28;20052;-52
2023/01/16 00:22:12;;;;;;;74.40;49.57;;;9.40;1.00;;;;;;4997028;28;20022;-51
2023/01/16 00:24:37;;;;;;;69.20;48.30;;;9.40;1.00;;;;;;5014414;28;20037;-52
2023/01/16 00:27:03;;;;;;;74.47;48.97;;;9.40;1.00;;;;;;5014015;28;20030;-53
2023/01/16 00:29:28;;;;;;;71.95;45.83;;;9.40;1.00;;;;;;5013977;28;20041;-49
2023/01/16 00:31:54;;;;;;;73.17;48.57;;;9.30;1.00;;;;;;5014070;28;20038;-50
2023/01/16 00:34:20;;;;;;;77.47;49.37;;;9.40;1.00;;;;;;5014665;28;20029;-52
2023/01/16 00:36:45;;;;;;;74.37;54.70;;;9.30;1.00;;;;;;5014161;28;20464;-53
2023/01/16 00:39:11;;;;;;;77.70;55.17;;;9.20;1.00;;;;;;5013471;28;20062;-54
2023/01/16 00:41:36;;;;;;;82.63;58.77;;;9.20;1.00;;;;;;5011580;28;20047;-53
2023/01/16 00:44:02;;;;;;;84.13;58.57;;;9.20;1.00;;;;;;5012758;28;20021;-52
2023/01/16 00:46:29;;;;;;;80.90;61.07;;;9.20;1.00;;;;;;5012324;28;20444;-53
2023/01/16 00:48:55;;;;;;;89.27;61.60;;;9.20;1.00;;;;;;5013667;28;20040;-50
2023/01/16 00:51:21;;;;;;;81.97;61.80;;;9.20;1.00;;;;;;5014278;28;20072;-49
2023/01/16 00:53:47;;;;;;;86.23;67.20;;;9.10;1.00;;;;;;4996405;28;20421;-51
2023/01/16 00:56:13;;;;;;;85.13;64.93;;;9.00;1.00;;;;;;5014300;28;20022;-50
2023/01/16 00:58:39;;;;;;;84.50;65.45;;;9.00;1.00;;;;;;4995915;28;20525;-50
2023/01/16 01:01:05;;;;;;;85.70;66.77;;;8.90;1.00;;;;;;5013656;28;20061;-50
2023/01/16 01:03:31;;;;;;;86.93;64.67;;;8.90;1.00;;;;;;5013597;28;20112;-51
2023/01/16 01:05:57;;;;;;;82.07;64.77;;;9.00;1.00;;;;;;5008555;28;20014;-50
2023/01/16 01:08:23;;;;;;;90.23;65.60;;;8.90;1.00;;;;;;4996283;28;20424;-50
2023/01/16 01:10:48;;;;;;;88.00;67.43;;;8.90;1.00;;;;;;5013344;28;20467;-49
2023/01/16 01:13:14;;;;;;;89.97;69.00;;;8.80;1.00;;;;;;5013853;28;20081;-51
2023/01/16 01:15:40;;;;;;;90.47;69.80;;;8.80;1.00;;;;;;5013272;28;20022;-51
2023/01/16 01:18:05;;;;;;;85.87;65.33;;;8.80;1.00;;;;;;5013753;28;20091;-50
2023/01/16 01:20:32;;;;;;;91.17;67.97;;;8.80;1.00;;;;;;5013125;28;20033;-51
2023/01/16 01:22:57;;;;;;;92.80;67.33;;;8.80;1.00;;;;;;5013615;28;20498;-49
2023/01/16 01:25:24;;;;;;;91.70;67.40;;;8.60;1.00;;;;;;5013400;28;20065;-50
2023/01/16 01:27:49;;;;;;;86.07;64.57;;;8.70;1.00;;;;;;5013437;28;20412;-48
2023/01/16 01:30:15;;;;;;;92.97;69.50;;;8.60;1.00;;;;;;5012934;28;20022;-49
2023/01/16 01:32:41;;;;;;;93.10;71.03;;;8.50;1.00;;;;;;5013178;28;20100;-52
2023/01/16 01:35:07;;;;;;;93.47;70.10;;;8.60;1.00;;;;;;5012494;28;20438;-49
2023/01/16 01:37:34;;;;;;;91.63;68.10;;;8.60;1.00;;;;;;4995097;28;20053;-53
2023/01/16 01:40:01;;;;;;;90.53;68.30;;;8.60;1.00;;;;;;5013298;28;20026;-51
2023/01/16 01:42:51;;;;;;;86.80;66.17;;;8.50;1.00;;;;;;4995299;28;20112;-50
2023/01/16 01:45:17;;;;;;;89.53;66.47;;;8.50;1.00;;;;;;4998945;28;20018;-52
2023/01/16 01:48:00;;;;;;;91.20;68.73;;;8.50;1.00;;;;;;5013205;28;20448;-55
2023/01/16 01:50:41;;;;;;;89.33;67.77;;;8.50;1.00;;;;;;5012774;28;20077;-51
2023/01/16 01:53:13;;;;;;;93.77;69.70;;;8.60;1.00;;;;;;5012977;28;20034;-52
2023/01/16 01:55:42;;;;;;;91.60;68.90;;;8.50;1.00;;;;;;4994966;28;20026;-50
2023/01/16 01:58:07;;;;;;;89.10;68.10;;;8.50;1.00;;;;;;5012680;28;20022;-55
2023/01/16 02:00:33;;;;;;;92.93;68.23;;;8.60;1.00;;;;;;5012467;28;20028;-49
2023/01/16 02:03:11;;;;;;;89.60;66.30;;;8.50;1.00;;;;;;5012700;28;20026;-54
2023/01/16 02:05:44;;;;;;;92.23;68.90;;;8.60;1.00;;;;;;5012000;28;20021;-52
2023/01/16 02:08:14;;;;;;;96.63;70.07;;;8.60;1.00;;;;;;5012692;28;20028;-49
2023/01/16 02:10:58;;;;;;;99.13;71.67;;;8.50;1.00;;;;;;4994714;28;20053;-54
2023/01/16 02:13:24;;;;;;;76.67;55.53;;;8.50;1.00;;;;;;4999826;28;20340;-53
2023/01/16 02:21:52;;;;;;;101.47;71.40;;;8.50;1.00;;;;;;5012142;28;20108;-50
2023/01/16 02:24:26;;;;;;;103.00;69.83;;;8.60;1.00;;;;;;5011926;28;20042;-50
2023/01/16 02:27:31;;;;;;;117.97;74.88;;;8.60;1.00;;;;;;5011272;28;20064;-49
2023/01/16 02:30:24;;;;;;;110.80;74.40;;;8.50;1.00;;;;;;5011269;28;20038;-49
2023/01/16 02:33:05;;;;;;;101.63;71.87;;;8.60;1.00;;;;;;5011657;28;20092;-51
2023/01/16 02:35:39;;;;;;;97.37;71.00;;;8.60;1.00;;;;;;5011010;28;20026;-51
2023/01/16 02:38:26;;;;;;;98.75;68.97;;;8.60;1.00;;;;;;5011952;28;20364;-50
2023/01/16 02:41:05;;;;;;;108.43;73.37;;;8.60;1.00;;;;;;5000736;28;20101;-50
2023/01/16 02:43:49;;;;;;;98.90;70.37;;;8.50;1.00;;;;;;5009073;28;20034;-49
2023/01/16 02:46:33;;;;;;;102.50;72.03;;;8.50;1.00;;;;;;5012195;28;20033;-49
2023/01/16 02:49:21;;;;;;;97.17;68.07;;;8.60;1.00;;;;;;5012051;28;20112;-51
2023/01/16 02:51:52;;;;;;;99.17;69.40;;;8.50;1.00;;;;;;5011937;28;20105;-53
2023/01/16 02:54:32;;;;;;;98.33;68.47;;;8.40;1.00;;;;;;5012173;28;20056;-50
2023/01/16 02:57:12;;;;;;;103.23;69.77;;;8.50;1.00;;;;;;5011474;28;20025;-50
2023/01/16 02:59:40;;;;;;;98.83;67.97;;;8.40;1.00;;;;;;5011620;28;20065;-50
2023/01/16 03:02:06;;;;;;;95.27;69.00;;;8.40;1.00;;;;;;5012250;28;20025;-50
2023/01/16 03:04:41;;;;;;;96.40;69.17;;;8.40;1.00;;;;;;5012133;28;20018;-52
2023/01/16 03:07:23;;;;;;;99.85;68.68;;;8.40;1.00;;;;;;5011737;28;20049;-53
2023/01/16 03:10:15;;;;;;;98.17;67.47;;;8.40;1.00;;;;;;5012148;28;20025;-54
2023/01/16 03:13:09;;;;;;;96.57;67.03;;;8.50;1.00;;;;;;5011685;28;20134;-56
2023/01/16 03:15:58;;;;;;;98.20;68.10;;;8.50;1.00;;;;;;5011794;28;20125;-55
2023/01/16 03:18:41;;;;;;;100.97;67.87;;;8.40;1.00;;;;;;5012332;28;20037;-56
2023/01/16 03:21:36;;;;;;;99.67;69.83;;;8.50;1.00;;;;;;5002671;28;20022;-54
2023/01/16 03:24:23;;;;;;;94.18;66.13;;;8.50;1.00;;;;;;5011824;28;20050;-54
2023/01/16 03:26:56;;;;;;;100.83;69.23;;;8.50;1.00;;;;;;5011683;28;20113;-55
2023/01/16 03:29:43;;;;;;;96.93;66.87;;;8.50;1.00;;;;;;5014095;28;20383;-55
2023/01/16 03:32:12;;;;;;;101.63;68.17;;;8.40;1.00;;;;;;5012722;28;20022;-51
2023/01/16 03:35:29;;;;;;;88.17;65.00;;;8.40;1.00;;;;;;5005774;28;20495;-55
2023/01/16 03:38:02;;;;;;;95.63;65.20;;;8.60;1.00;;;;;;4972062;28;20120;-53
2023/01/16 03:40:33;;;;;;;95.00;68.00;;;8.50;1.00;;;;;;5015057;28;20029;-50
2023/01/16 03:43:20;;;;;;;95.90;67.70;;;8.40;1.00;;;;;;4997116;28;20120;-53
2023/01/16 03:46:22;;;;;;;92.20;64.47;;;8.40;1.00;;;;;;5015094;28;20022;-50
2023/01/16 03:48:53;;;;;;;90.77;65.10;;;8.50;1.00;;;;;;5015238;28;20042;-50
2023/01/16 03:51:30;;;;;;;93.30;63.47;;;8.60;1.00;;;;;;5014813;28;20021;-52
2023/01/16 03:54:17;;;;;;;92.33;63.93;;;8.50;1.00;;;;;;5015108;28;20487;-49
2023/01/16 03:56:50;;;;;;;91.70;63.40;;;8.40;1.00;;;;;;5013783;28;20113;-49
2023/01/16 03:59:17;;;;;;;91.43;62.70;;;8.40;1.00;;;;;;5014703;28;20031;-54
2023/01/16 04:02:11;;;;;;;95.27;64.60;;;8.40;1.00;;;;;;4997434;28;20037;-52
2023/01/16 04:05:00;;;;;;;98.50;67.23;;;8.40;1.00;;;;;;5014752;28;20036;-49
2023/01/16 04:07:45;;;;;;;92.53;61.97;;;8.40;1.00;;;;;;5001349;28;20034;-50
2023/01/16 04:10:25;;;;;;;94.10;62.50;;;8.30;1.00;;;;;;5014517;28;20501;-49
2023/01/16 04:12:55;;;;;;;92.57;62.63;;;8.20;1.00;;;;;;5014576;28;20044;-52
2023/01/16 04:15:23;;;;;;;87.60;60.50;;;8.20;1.00;;;;;;4996844;28;20472;-50
2023/01/16 04:17:49;;;;;;;92.20;61.40;;;8.20;1.00;;;;;;5014763;28;20062;-49
2023/01/16 04:20:15;;;;;;;91.37;63.07;;;8.30;1.00;;;;;;5014553;28;20071;-50
2023/01/16 04:22:40;;;;;;;87.57;61.20;;;8.30;1.00;;;;;;5014565;28;20521;-50
2023/01/16 04:25:08;;;;;;;91.80;61.67;;;8.30;1.00;;;;;;4996900;28;20021;-50
2023/01/16 04:27:34;;;;;;;93.87;62.63;;;8.10;1.00;;;;;;5014703;28;20030;-50
2023/01/16 04:30:00;;;;;;;86.87;60.40;;;8.20;1.00;;;;;;5014424;28;20361;-53
2023/01/16 04:32:25;;;;;;;90.03;59.50;;;8.20;1.00;;;;;;5014682;28;20037;-52
2023/01/16 04:34:51;;;;;;;92.10;59.87;;;8.20;1.00;;;;;;5014445;28;20347;-53
2023/01/16 04:37:18;;;;;;;92.20;59.60;;;8.20;1.00;;;;;;5014092;28;20396;-52
2023/01/16 04:39:43;;;;;;;86.27;59.73;;;8.20;1.00;;;;;;5014362;28;20522;-49
2023/01/16 04:42:10;;;;;;;91.73;61.80;;;8.20;1.00;;;;;;5013812;28;20102;-52
2023/01/16 04:44:36;;;;;;;92.57;60.73;;;8.20;1.00;;;;;;5014289;28;20042;-52
2023/01/16 04:47:01;;;;;;;89.43;59.00;;;8.10;1.00;;;;;;5014603;28;20061;-50
2023/01/16 04:49:27;;;;;;;90.43;61.63;;;8.20;1.00;;;;;;5013986;28;20538;-51
2023/01/16 04:51:53;;;;;;;85.10;56.53;;;8.20;1.00;;;;;;5014053;28;20069;-49
2023/01/16 04:54:19;;;;;;;90.70;58.60;;;7.90;1.00;;;;;;5014178;28;20029;-52
2023/01/16 04:56:45;;;;;;;90.37;59.60;;;7.90;1.00;;;;;;5013448;28;20376;-52
2023/01/16 04:59:12;;;;;;;95.17;59.07;;;8.00;1.00;;;;;;5013691;28;20103;-49
2023/01/16 05:01:38;;;;;;;89.63;58.50;;;8.00;1.00;;;;;;5013739;28;20014;-53
2023/01/16 05:04:06;;;;;;;95.23;60.23;;;7.80;1.00;;;;;;5004021;28;20026;-52
2023/01/16 05:06:33;;;;;;;94.47;59.80;;;8.00;1.00;;;;;;5011781;28;20502;-55
2023/01/16 05:08:59;;;;;;;90.83;59.40;;;8.00;1.00;;;;;;5010829;28;20030;-55
2023/01/16 05:11:25;;;;;;;91.07;58.63;;;8.10;1.00;;;;;;5011425;28;20045;-54
2023/01/16 05:13:51;;;;;;;99.27;62.20;;;7.90;1.00;;;;;;4994964;28;20072;-55
2023/01/16 05:16:16;;;;;;;101.47;63.00;;;8.10;1.00;;;;;;5013021;28;20117;-54
2023/01/16 05:18:42;;;;;;;98.10;62.77;;;8.10;1.00;;;;;;5013560;28;20096;-50
2023/01/16 05:21:08;;;;;;;94.47;60.30;;;8.00;1.00;;;;;;4995909;28;20026;-50
2023/01/16 05:23:34;;;;;;;97.40;60.67;;;8.00;1.00;;;;;;5013636;28;20076;-51
2023/01/16 05:26:01;;;;;;;100.83;60.83;;;8.10;1.00;;;;;;5013052;28;20026;-51
2023/01/16 05:28:27;;;;;;;99.30;61.77;;;8.00;1.00;;;;;;5013220;28;20476;-51
2023/01/16 05:30:52;;;;;;;95.77;58.90;;;7.90;1.00;;;;;;5013460;28;20033;-52
2023/01/16 05:33:18;;;;;;;96.87;61.53;;;8.00;1.00;;;;;;5013526;28;20364;-50
2023/01/16 05:35:48;;;;;;;95.57;59.70;;;7.90;1.00;;;;;;5012986;28;20038;-50
2023/01/16 05:38:14;;;;;;;92.20;56.63;;;8.00;1.00;;;;;;5013251;28;20097;-52
2023/01/16 05:40:41;;;;;;;94.00;58.27;;;7.90;1.00;;;;;;5013372;28;20026;-51
2023/01/16 05:43:07;;;;;;;88.63;56.30;;;8.00;1.00;;;;;;5013021;28;20025;-51
2023/01/16 05:45:32;;;;;;;89.27;56.33;;;7.90;1.00;;;;;;5013270;28;20153;-52
2023/01/16 05:47:58;;;;;;;86.47;53.83;;;8.00;1.00;;;;;;5006594;28;20026;-51
2023/01/16 05:50:24;;;;;;;84.47;53.57;;;7.90;1.00;;;;;;5012780;28;20396;-52
2023/01/16 05:52:50;;;;;;;85.83;55.07;;;7.90;1.00;;;;;;5012412;28;20364;-51
2023/01/16 05:55:16;;;;;;;89.30;54.30;;;7.90;1.00;;;;;;5012704;28;20125;-50
2023/01/16 05:57:42;;;;;;;88.07;55.37;;;7.90;1.00;;;;;;5013235;28;20383;-50
2023/01/16 06:00:09;;;;;;;86.63;53.33;;;7.90;1.00;;;;;;5012309;28;20104;-49
2023/01/16 06:02:35;;;;;;;86.17;53.90;;;8.00;1.00;;;;;;5012928;28;20041;-48
2023/01/16 06:05:00;;;;;;;84.10;54.20;;;8.00;1.00;;;;;;5012737;28;20109;-49
2023/01/16 06:07:26;;;;;;;83.90;52.00;;;7.90;1.00;;;;;;5012334;28;20041;-50
2023/01/16 06:09:52;;;;;;;81.00;50.77;;;7.90;1.00;;;;;;5013075;28;20026;-51
2023/01/16 06:12:19;;;;;;;81.90;53.90;;;7.90;1.00;;;;;;5012287;28;20048;-53
2023/01/16 06:14:45;;;;;;;83.70;52.87;;;7.90;1.00;;;;;;5012429;28;20481;-50
2023/01/16 06:17:11;;;;;;;81.73;51.00;;;7.90;1.00;;;;;;5012596;28;20049;-51
2023/01/16 06:19:36;;;;;;;83.10;51.60;;;7.90;1.00;;;;;;5012221;28;20432;-49
2023/01/16 06:22:02;;;;;;;78.13;50.47;;;7.90;1.00;;;;;;5012386;28;20034;-49
2023/01/16 06:24:28;;;;;;;75.97;47.93;;;7.90;1.00;;;;;;5012199;28;20030;-51
2023/01/16 06:26:53;;;;;;;76.10;47.80;;;7.90;1.00;;;;;;5010265;28;20026;-52
2023/01/16 06:29:19;;;;;;;78.23;47.20;;;7.90;1.00;;;;;;5012397;28;20053;-49
2023/01/16 06:31:44;;;;;;;78.77;48.07;;;7.90;1.00;;;;;;5012163;28;20083;-53
2023/01/16 06:34:11;;;;;;;73.70;47.87;;;7.90;1.00;;;;;;5010311;28;20439;-49
2023/01/16 06:36:36;;;;;;;69.73;46.07;;;7.90;1.00;;;;;;5012278;28;20021;-55
2023/01/16 06:39:02;;;;;;;74.70;48.33;;;7.80;1.00;;;;;;5012128;28;20360;-56
2023/01/16 06:41:27;;;;;;;72.53;44.97;;;7.80;1.00;;;;;;4994577;28;20152;-50
2023/01/16 06:43:53;;;;;;;73.90;46.80;;;7.80;1.00;;;;;;5012414;28;20144;-51
2023/01/16 06:46:19;;;;;;;75.23;47.03;;;7.80;1.00;;;;;;5011772;28;20025;-55
2023/01/16 06:48:44;;;;;;;76.23;47.17;;;7.80;1.00;;;;;;5012076;28;20057;-52
2023/01/16 06:51:10;;;;;;;70.07;45.67;;;7.80;1.00;;;;;;5011593;28;20175;-54
2023/01/16 06:53:36;;;;;;;73.93;46.27;;;7.80;1.00;;;;;;4994418;28;20034;-56
2023/01/16 06:56:02;;;;;;;75.00;46.63;;;7.80;1.00;;;;;;5011724;28;20064;-54
2023/01/16 06:58:28;;;;;;;72.77;47.57;;;7.90;1.00;;;;;;5012203;28;20026;-53
2023/01/16 07:00:55;;;;;;;75.50;46.87;;;7.90;1.00;;;;;;5011620;28;20379;-54
2023/01/16 07:03:21;;;;;;;81.37;52.47;;;7.80;1.00;;;;;;5012660;28;20383;-54
2023/01/16 07:05:46;;;;;;;75.57;51.63;;;7.80;1.00;;;;;;5015816;28;20033;-53
2023/01/16 07:08:13;;;;;;;75.63;50.00;;;7.70;1.00;;;;;;5015594;28;20514;-55
2023/01/16 07:10:39;;;;;;;80.27;52.77;;;7.90;1.00;;;;;;5016154;28;20022;-54
2023/01/16 07:13:04;;;;;;;71.17;50.27;;;7.80;1.00;;;;;;5015675;28;20026;-55
2023/01/16 07:23:52;;;;;;;69.67;44.40;;;7.50;1.00;;;;;;5016187;28;20496;-53
2023/01/16 07:26:20;;;;;;;65.63;47.73;;;7.50;1.00;;;;;;5015440;28;20026;-51
2023/01/16 07:28:47;;;;;;;73.60;50.73;;;7.50;1.00;;;;;;5015900;28;20022;-51
2023/01/16 07:31:13;;;;;;;77.03;50.53;;;7.40;1.00;;;;;;5015816;28;20022;-52
2023/01/16 07:33:39;;;;;;;73.80;50.70;;;7.30;1.00;;;;;;5015511;28;20037;-52
2023/01/16 07:36:05;;;;;;;73.40;49.27;;;7.30;1.00;;;;;;5015324;28;20022;-52
2023/01/16 07:38:30;;;;;;;76.47;50.50;;;7.50;1.00;;;;;;5015447;28;20502;-52
2023/01/16 07:44:02;;;;;;;69.47;48.27;;;7.50;1.00;;;;;;5015605;28;20048;-55
2023/01/16 07:46:27;;;;;;;77.33;49.67;;;7.50;1.00;;;;;;4997448;28;20026;-55
2023/01/16 07:48:55;;;;;;;80.23;52.37;;;7.50;1.00;;;;;;5014845;28;20459;-54
2023/01/16 07:51:21;;;;;;;74.00;49.53;;;7.40;1.00;;;;;;5015233;28;20034;-52
2023/01/16 07:53:46;;;;;;;79.30;50.23;;;7.50;1.00;;;;;;5014802;28;20045;-50
2023/01/16 07:56:12;;;;;;;78.07;49.87;;;7.40;1.00;;;;;;5015395;28;20026;-51
2023/01/16 07:58:41;;;;;;;76.80;46.20;;;7.20;1.00;;;;;;5014635;28;20034;-53
2023/01/16 08:01:06;;;;;;;79.50;49.73;;;7.40;1.00;;;;;;5014071;28;20018;-55
2023/01/16 08:03:32;;;;;;;73.47;47.03;;;7.30;1.00;;;;;;5014589;28;20040;-52
2023/01/16 08:05:58;;;;;;;109.87;51.90;;;7.50;1.00;;;;;;5014885;28;20014;-51
2023/01/16 08:08:28;;;;;;;119.63;58.40;;;7.40;1.00;;;;;;5014384;28;20091;-53
2023/01/16 08:10:58;;;;;;;71.57;49.37;;;7.20;1.00;;;;;;5015580;28;20459;-52
2023/01/16 08:13:40;;;;;;;79.87;49.07;;;7.50;1.00;;;;;;5013914;28;20045;-56
2023/01/16 08:16:06;;;;;;;75.90;48.43;;;7.50;1.00;;;;;;5014355;28;20030;-50
2023/01/16 08:18:31;;;;;;;72.67;49.50;;;7.70;1.00;;;;;;5014746;28;20030;-51
2023/01/16 08:20:57;;;;;;;80.83;50.93;;;7.50;1.00;;;;;;5014504;28;20361;-54
2023/01/16 08:23:22;;;;;;;80.00;52.87;;;7.60;1.00;;;;;;4996944;28;20030;-50
2023/01/16 08:25:50;;;;;;;84.53;53.50;;;7.60;1.00;;;;;;5014094;28;20034;-56
2023/01/16 08:28:15;;;;;;;86.67;55.67;;;7.70;1.00;;;;;;5014613;28;20081;-51
2023/01/16 08:30:41;;;;;;;88.80;57.90;;;7.70;1.00;;;;;;4996441;28;20029;-51
2023/01/16 08:33:07;;;;;;;88.23;52.67;;;7.70;1.00;;;;;;5014275;28;20038;-51
2023/01/16 08:35:33;;;;;;;86.30;53.60;;;7.80;1.00;;;;;;5014334;28;20050;-51
2023/01/16 08:37:58;;;;;;;84.10;53.47;;;7.90;1.00;;;;;;5014405;28;20431;-49
2023/01/16 08:40:24;;;;;;;79.47;52.53;;;7.90;1.00;;;;;;5013842;28;20113;-50
2023/01/16 08:51:23;;;;;;;82.10;53.13;;;8.10;1.00;;;;;;5004423;28;20052;-52
2023/01/16 08:53:51;;;;;;;79.23;53.00;;;8.10;1.00;;;;;;4996582;28;20040;-51
2023/01/16 08:56:16;;;;;;;78.87;50.87;;;8.30;1.00;;;;;;5013805;28;20029;-54
2023/01/16 08:58:42;;;;;;;79.37;51.23;;;8.30;1.00;;;;;;5014221;28;20104;-51
2023/01/16 09:01:08;;;;;;;71.80;48.37;;;8.50;1.00;;;;;;5013647;28;20341;-52
2023/01/16 09:03:34;;;;;;;69.57;44.57;;;8.40;1.00;;;;;;5013732;28;20018;-55
2023/01/16 09:06:00;;;;;;;67.60;45.87;;;8.50;1.00;;;;;;5006687;28;20033;-51
2023/01/16 09:08:25;;;;;;;68.70;44.97;;;8.50;1.00;;;;;;5013878;28;20024;-55
2023/01/16 09:13:50;;;;;;;65.53;44.03;;;8.60;1.00;;;;;;5013727;28;20056;-55
2023/01/16 09:16:24;;;;;;;67.20;44.47;;;8.60;1.00;;;;;;5013313;28;20561;-53
2023/01/16 09:18:50;;;;;;;66.90;42.20;;;8.50;1.00;;;;;;5013300;28;20037;-52
2023/01/16 09:21:18;;;;;;;64.77;42.33;;;8.40;1.00;;;;;;5009069;28;20590;-53
2023/01/16 09:23:44;;;;;;;71.27;44.10;;;8.40;1.00;;;;;;4987321;28;20030;-53
2023/01/16 09:26:09;;;;;;;67.97;45.17;;;8.40;1.00;;;;;;5011954;28;20085;-51
2023/01/16 09:28:35;;;;;;;70.53;45.67;;;8.20;1.00;;;;;;5012002;28;20034;-52
2023/01/16 09:31:01;;;;;;;73.27;46.37;;;8.40;1.00;;;;;;5010667;28;20084;-53
2023/01/16 09:33:27;;;;;;;74.17;47.27;;;8.40;1.00;;;;;;5010969;28;20141;-54
2023/01/16 09:35:52;;;;;;;62.83;43.17;;;8.10;1.00;;;;;;5010882;28;20034;-54
2023/01/16 09:38:18;;;;;;;61.83;39.40;;;8.20;1.00;;;;;;5012124;28;20095;-52
2023/01/16 09:40:49;;;;;;;59.63;40.73;;;8.30;1.00;;;;;;4995280;28;20041;-54
2023/01/16 09:43:40;;;;;;;63.43;41.33;;;8.20;1.00;;;;;;5013359;28;20029;-51
2023/01/16 09:46:18;;;;;;;59.10;38.20;;;8.40;1.00;;;;;;5012805;28;20022;-53
2023/01/16 09:48:53;;;;;;;55.03;37.43;;;8.40;1.00;;;;;;5012869;28;20141;-50
2023/01/16 09:51:26;;;;;;;54.93;38.43;;;8.40;1.00;;;;;;5000487;28;20029;-51
2023/01/16 09:59:40;;;;;;;60.10;37.30;;;8.10;1.00;;;;;;5013064;28;20129;-51
2023/01/16 10:02:23;;;;;;;57.23;37.13;;;8.10;1.00;;;;;;4994908;28;20113;-51
2023/01/16 10:04:50;;;;;;;57.17;37.53;;;8.10;1.00;;;;;;5013226;28;20101;-51
2023/01/16 10:07:38;;;;;;;63.60;40.07;;;8.10;1.00;;;;;;5012118;28;20030;-53
2023/01/16 10:10:37;;;;;;;57.17;37.97;;;8.00;1.00;;;;;;5000055;28;20018;-52
2023/01/16 10:13:21;;;;;;;66.40;40.47;;;8.00;1.00;;;;;;5009934;28;20511;-55
2023/01/16 10:16:16;;;;;;;58.40;37.30;;;7.90;1.00;;;;;;5012488;28;20057;-56
2023/01/16 10:19:05;;;;;;;56.30;37.83;;;7.90;1.00;;;;;;5000433;28;20505;-55
2023/01/16 10:21:34;;;;;;;53.90;32.90;;;7.80;1.00;;;;;;5012085;28;20026;-56
2023/01/16 10:24:20;;;;;;;54.00;32.73;;;7.90;1.00;;;;;;5012287;28;20100;-54
2023/01/16 10:26:58;;;;;;;47.37;32.40;;;7.90;1.00;;;;;;5012438;28;20030;-56
2023/01/16 10:29:43;;;;;;;51.77;34.13;;;7.90;1.00;;;;;;5012574;28;20061;-54
2023/01/16 10:32:11;;;;;;;50.83;33.05;;;7.60;1.00;;;;;;4998946;28;20356;-55
2023/01/16 10:35:00;;;;;;;58.43;34.63;;;7.70;1.00;;;;;;5012858;28;20033;-50
2023/01/16 10:37:27;;;;;;;63.57;36.83;;;7.70;1.00;;;;;;5000187;28;20034;-51
2023/01/16 10:39:54;;;;;;;58.57;37.07;;;7.60;1.00;;;;;;5012712;28;20100;-52
2023/01/16 10:50:52;;;;;;;57.87;35.73;;;7.90;1.00;;;;;;5012530;28;20032;-51
2023/01/16 10:53:17;;;;;;;67.00;39.37;;;7.90;1.00;;;;;;5011498;28;20034;-56
2023/01/16 10:55:46;;;;;;;64.23;37.07;;;7.90;1.00;;;;;;5012492;28;20030;-55
2023/01/16 10:58:27;;;;;;;57.43;37.77;;;8.00;1.00;;;;;;5012222;28;20498;-53
2023/01/16 11:01:14;;;;;;;58.47;36.20;;;7.90;1.00;;;;;;5012494;28;20088;-54
2023/01/16 11:04:00;;;;;;;61.63;36.37;;;8.00;1.00;;;;;;5011893;28;20076;-52
2023/01/16 11:06:28;;;;;;;64.60;36.47;;;7.90;1.00;;;;;;5003007;28;20427;-53
2023/01/16 11:08:53;;;;;;;57.43;35.77;;;8.00;1.00;;;;;;5012259;28;20034;-51
2023/01/16 11:19:44;;;;;;;57.13;35.70;;;8.00;1.00;;;;;;5012312;28;20065;-51
2023/01/16 11:22:27;;;;;;;60.43;35.83;;;8.20;1.00;;;;;;5011932;28;20029;-54
2023/01/16 11:24:58;;;;;;;57.00;33.67;;;8.10;1.00;;;;;;5012066;28;20117;-50
2023/01/16 11:27:37;;;;;;;55.80;32.90;;;8.10;1.00;;;;;;5011570;28;20113;-50
2023/01/16 11:30:09;;;;;;;52.33;31.77;;;8.00;1.00;;;;;;5012162;28;20034;-53
2023/01/16 11:32:37;;;;;;;58.90;33.90;;;8.10;1.00;;;;;;5011719;28;20084;-50
2023/01/16 11:35:12;;;;;;;53.27;31.13;;;8.20;1.00;;;;;;5012144;28;20030;-49
2023/01/16 11:37:39;;;;;;;54.47;32.42;;;8.30;1.00;;;;;;5011918;28;20030;-49
2023/01/16 11:40:05;;;;;;;51.03;31.13;;;8.40;1.00;;;;;;5012016;28;20026;-50
2023/01/16 11:48:25;;;;;;;49.33;28.43;;;8.40;1.00;;;;;;5011796;28;20348;-50
2023/01/16 11:50:55;;;;;;;48.97;30.27;;;8.40;1.00;;;;;;5014282;28;20514;-51
2023/01/16 11:53:21;;;;;;;46.67;28.53;;;8.30;1.00;;;;;;5015713;28;20042;-51
2023/01/16 11:56:08;;;;;;;50.50;29.10;;;8.50;1.00;;;;;;5014873;28;20484;-50
2023/01/16 11:58:46;;;;;;;43.73;29.07;;;8.40;1.00;;;;;;5015299;28;20026;-52
2023/01/16 12:01:21;;;;;;;47.60;28.27;;;8.60;1.00;;;;;;4984721;28;20498;-53
2023/01/16 12:03:59;;;;;;;;;;;8.50;1.00;;;;;;5015844;28;20030;-50
2023/01/16 12:06:48;;;;;;;46.43;27.47;;;8.40;1.00;;;;;;5002994;28;19905;-50
2023/01/16 12:09:33;;;;;;;44.13;26.13;;;8.50;1.00;;;;;;5015290;28;20505;-51
2023/01/16 12:15:22;;;;;;;40.23;23.47;;;8.60;1.00;;;;;;5002874;28;20041;-52
2023/01/16 12:18:09;;;;;;;38.90;22.53;;;8.50;1.00;;;;;;5015168;28;20029;-51
2023/01/16 12:20:51;;;;;;;38.03;23.83;;;8.50;1.00;;;;;;4996702;28;20121;-51
2023/01/16 12:23:31;;;;;;;38.67;24.03;;;8.50;1.00;;;;;;4984052;28;20022;-55
2023/01/16 12:26:03;;;;;;;39.43;24.27;;;8.60;1.00;;;;;;5014254;28;20053;-52
2023/01/16 12:28:41;;;;;;;40.13;24.37;;;8.50;1.00;;;;;;5014735;28;20127;-51
2023/01/16 12:31:35;;;;;;;36.40;23.90;;;8.50;1.00;;;;;;5014822;28;20080;-53
2023/01/16 12:34:21;;;;;;;36.63;22.27;;;8.70;1.00;;;;;;5000132;28;20037;-50
2023/01/16 12:37:05;;;;;;;33.77;21.43;;;8.70;1.00;;;;;;5014230;28;20049;-51
2023/01/16 12:39:40;;;;;;;33.50;21.23;;;8.90;1.00;;;;;;5014970;28;20030;-52
2023/01/16 12:45:31;;;;;;;33.70;20.13;;;8.80;1.00;;;;;;5014593;28;20052;-50
2023/01/16 12:48:17;;;;;;;29.53;19.03;;;9.20;1.00;;;;;;5003972;28;20491;-52
2023/01/16 12:51:01;;;;;;;29.93;19.57;;;9.10;1.00;;;;;;5014413;28;20041;-51
2023/01/16 12:53:57;;;;;;;28.83;19.40;;;9.00;1.00;;;;;;5014466;28;20042;-53
2023/01/16 12:56:35;;;;;;;33.43;21.07;;;9.00;1.00;;;;;;5009224;28;20040;-51
2023/01/16 12:59:17;;;;;;;33.07;20.97;;;9.00;1.00;;;;;;5014136;28;20101;-54
2023/01/16 13:01:46;;;;;;;28.30;19.13;;;9.10;1.00;;;;;;5013223;28;20507;-53
2023/01/16 13:04:25;;;;;;;29.13;20.80;;;8.80;1.00;;;;;;5013645;28;20026;-51
2023/01/16 13:06:59;;;;;;;27.30;19.27;;;8.90;1.00;;;;;;5013999;28;20026;-50
2023/01/16 13:13:21;;;;;;;30.98;21.30;;;8.80;1.00;;;;;;5014240;28;20033;-52
2023/01/16 13:15:32;;;;;;;26.73;19.70;;;8.90;1.00;;;;;;5013521;28;20088;-52
2023/01/16 13:18:06;;;;;;;29.13;19.53;;;9.00;1.00;;;;;;5013965;28;20065;-51
2023/01/16 13:20:32;;;;;;;28.30;18.80;;;8.80;1.00;;;;;;5012423;28;20018;-51
2023/01/16 13:23:08;;;;;;;25.83;18.23;;;8.90;1.00;;;;;;5013840;28;20030;-49
2023/01/16 13:25:38;;;;;;;26.87;18.90;;;9.10;1.00;;;;;;4995988;28;20101;-49
2023/01/16 13:28:44;;;;;;;25.53;18.37;;;9.10;1.00;;;;;;5014091;28;20080;-49
2023/01/16 13:31:41;;;;;;;25.92;17.80;;;9.10;1.00;;;;;;5013539;28;20109;-49
2023/01/16 13:34:25;;;;;;;24.13;16.30;;;8.80;1.00;;;;;;5007944;28;20042;-52
2023/01/16 13:37:05;;;;;;;21.73;17.58;;;9.00;1.00;;;;;;4995358;28;20057;-54
2023/01/16 13:39:52;;;;;;;22.33;17.13;;;9.00;1.00;;;;;;5011683;28;20392;-53
2023/01/16 13:42:19;;;;;;;25.33;17.55;;;9.10;1.00;;;;;;5008658;28;20152;-55
2023/01/16 13:47:39;;;;;;;23.53;17.03;;;9.00;1.00;;;;;;5010344;28;20084;-54
2023/01/16 13:50:23;;;;;;;22.53;16.97;;;9.00;1.00;;;;;;4974575;28;20508;-50
2023/01/16 13:52:49;;;;;;;24.07;17.47;;;9.00;1.00;;;;;;4963554;28;20053;-50
2023/01/16 13:55:34;;;;;;;23.02;17.52;;;9.10;1.00;;;;;;4973164;28;20027;-50
2023/01/16 13:58:16;;;;;;;35.85;19.10;;;9.10;1.00;;;;;;4974426;28;20023;-51
2023/01/16 14:00:43;;;;;;;25.33;18.00;;;9.20;1.00;;;;;;4974100;28;20097;-53
2023/01/16 14:03:29;;;;;;;28.63;17.10;;;9.20;1.00;;;;;;4974502;28;20377;-52
2023/01/16 14:06:10;;;;;;;26.63;17.25;;;9.10;1.00;;;;;;4964248;28;20521;-51
2023/01/16 14:09:04;;;;;;;26.92;17.90;;;9.20;1.00;;;;;;4973583;28;20078;-54
2023/01/16 14:11:39;;;;;;;29.58;19.42;;;9.30;1.00;;;;;;4952034;28;20047;-50
2023/01/16 14:17:55;;;;;;;28.23;17.37;;;9.20;1.00;;;;;;4961092;28;20223;-54
2023/01/16 14:20:47;;;;;;;28.83;17.90;;;9.10;1.00;;;;;;4973561;28;20019;-54
2023/01/16 14:26:30;;;;;;;30.57;18.97;;;9.10;1.00;;;;;;4970783;28;20121;-51